createdAt,value
2016-04-17T00:00:31.661Z,15.51
2016-04-17T00:01:31.632Z,15.43
2016-04-17T00:02:31.620Z,15.54
2016-04-17T00:03:31.607Z,15.44
2016-04-17T00:04:31.579Z,15.37
2016-04-17T00:05:31.566Z,15.46
2016-04-17T00:06:31.568Z,15.51
2016-04-17T00:07:31.571Z,15.55
2016-04-17T00:08:31.526Z,15.36
2016-04-17T00:09:31.561Z,15.57
2016-04-17T00:10:31.501Z,15.52
2016-04-17T00:11:31.488Z,15.47
2016-04-17T00:12:31.491Z,15.4
2016-04-17T00:13:31.446Z,15.4
2016-04-17T00:14:31.448Z,15.36
2016-04-17T00:15:31.420Z,15.54
2016-04-17T00:16:31.423Z,15.52
2016-04-17T00:17:31.411Z,15.62
2016-04-17T00:18:31.381Z,15.72
2016-04-17T00:19:31.369Z,15.62
2016-04-17T00:20:31.355Z,15.42
2016-04-17T00:21:31.343Z,15.49
2016-04-17T00:22:31.330Z,15.35
2016-04-17T00:23:31.302Z,15.49
2016-04-17T00:24:31.398Z,15.31
2016-04-17T00:25:31.291Z,15.19
2016-04-17T00:26:31.263Z,15.35
2016-04-17T00:27:31.249Z,15.35
2016-04-17T00:28:31.236Z,15.39
2016-04-17T00:29:31.238Z,15.43
2016-04-17T00:30:31.210Z,15.52
2016-04-17T00:31:31.213Z,15.4
2016-04-17T00:32:31.185Z,15.28
2016-04-17T00:33:31.171Z,15.36
2016-04-17T00:34:31.143Z,15.29
2016-04-17T00:35:31.146Z,15.15
2016-04-17T00:36:31.118Z,15.21
2016-04-17T00:37:31.121Z,15.35
2016-04-17T00:38:31.092Z,15.46
2016-04-17T00:39:31.298Z,15.42
2016-04-17T00:40:31.065Z,15.36
2016-04-17T00:41:31.068Z,15.35
2016-04-17T00:42:31.040Z,15.39
2016-04-17T00:43:31.012Z,15.46
2016-04-17T00:44:31.014Z,15.59
2016-04-17T00:45:31.001Z,15.62
2016-04-17T00:46:30.972Z,15.57
2016-04-17T00:47:30.959Z,15.43
2016-04-17T00:48:30.962Z,15.59
2016-04-17T00:49:30.934Z,15.64
2016-04-17T00:50:30.921Z,15.59
2016-04-17T00:51:30.892Z,15.51
2016-04-17T00:52:30.880Z,15.55
2016-04-17T00:53:30.883Z,15.51
2016-04-17T00:54:30.886Z,15.4
2016-04-17T00:55:30.856Z,15.46
2016-04-17T00:56:30.828Z,15.64
2016-04-17T00:57:30.814Z,15.58
2016-04-17T00:58:30.802Z,15.47
2016-04-17T00:59:30.788Z,15.57
2016-04-17T01:00:30.777Z,15.75
2016-04-17T01:01:30.763Z,15.68
2016-04-17T01:02:30.735Z,15.8
2016-04-17T01:03:30.721Z,15.76
2016-04-17T01:04:30.708Z,15.86
2016-04-17T01:05:30.696Z,15.7
2016-04-17T01:06:30.683Z,15.7
2016-04-17T01:07:30.670Z,15.43
2016-04-17T01:08:30.657Z,15.54
2016-04-17T01:09:30.706Z,15.36
2016-04-17T01:10:30.615Z,15.25
2016-04-17T01:11:30.618Z,15.19
2016-04-17T01:12:30.590Z,15.11
2016-04-17T01:13:30.577Z,15.17
2016-04-17T01:14:30.564Z,15.22
2016-04-17T01:15:30.550Z,15.19
2016-04-17T01:16:30.537Z,15.36
2016-04-17T01:17:30.525Z,15.36
2016-04-17T01:18:30.496Z,15.33
2016-04-17T01:19:30.484Z,15.36
2016-04-17T01:20:30.470Z,15.39
2016-04-17T01:21:30.458Z,15.33
2016-04-17T01:22:30.460Z,15.37
2016-04-17T01:23:30.431Z,15.09
2016-04-17T01:24:30.325Z,15.1
2016-04-17T01:25:30.609Z,15.11
2016-04-17T01:26:30.408Z,15.18
2016-04-17T01:27:30.364Z,15.21
2016-04-17T01:28:30.366Z,15.22
2016-04-17T01:29:30.338Z,15.19
2016-04-17T01:30:30.341Z,15.21
2016-04-17T01:31:30.328Z,15.21
2016-04-17T01:32:30.299Z,15.21
2016-04-17T01:33:30.286Z,15.33
2016-04-17T01:34:30.273Z,15.31
2016-04-17T01:35:30.261Z,15.21
2016-04-17T01:36:30.232Z,15.22
2016-04-17T01:37:30.219Z,15.11
2016-04-17T01:38:30.221Z,15.17
2016-04-17T01:39:30.209Z,15.19
2016-04-17T01:40:30.179Z,15.21
2016-04-17T01:41:30.183Z,15.19
2016-04-17T01:42:30.154Z,15.29
2016-04-17T01:43:30.142Z,15.17
2016-04-17T01:44:30.144Z,15.28
2016-04-17T01:45:30.115Z,15.33
2016-04-17T01:46:29.931Z,15.39
2016-04-17T01:47:30.090Z,15.22
2016-04-17T01:48:30.076Z,15.29
2016-04-17T01:49:30.064Z,15.42
2016-04-17T01:50:30.050Z,15.22
2016-04-17T01:51:30.022Z,15.17
2016-04-17T01:52:30.009Z,15.14
2016-04-17T01:53:29.997Z,15.06
2016-04-17T01:54:29.968Z,15.06
2016-04-17T01:55:29.970Z,15.02
2016-04-17T01:56:29.942Z,15.15
2016-04-17T01:57:29.944Z,15.15
2016-04-17T01:58:29.916Z,15.03
2016-04-17T01:59:29.903Z,14.99
2016-04-17T02:00:29.891Z,15.07
2016-04-17T02:01:29.877Z,15.06
2016-04-17T02:02:29.849Z,15.07
2016-04-17T02:03:29.851Z,15.09
2016-04-17T02:04:29.824Z,15.17
2016-04-17T02:05:29.669Z,15.24
2016-04-17T02:06:29.797Z,15.24
2016-04-17T02:07:29.784Z,15.14
2016-04-17T02:08:29.771Z,15.15
2016-04-17T02:09:29.758Z,15.14
2016-04-17T02:10:29.746Z,15.18
2016-04-17T02:11:29.732Z,15.17
2016-04-17T02:12:29.720Z,15.14
2016-04-17T02:13:29.690Z,15.18
2016-04-17T02:14:29.693Z,15.21
2016-04-17T02:15:29.664Z,15.28
2016-04-17T02:16:29.652Z,15.33
2016-04-17T02:17:29.639Z,15.17
2016-04-17T02:18:29.626Z,15.11
2016-04-17T02:19:29.613Z,15.18
2016-04-17T02:20:29.600Z,15.11
2016-04-17T02:21:29.447Z,15.06
2016-04-17T02:22:29.564Z,15.11
2016-04-17T02:23:29.550Z,15.15
2016-04-17T02:24:29.538Z,15.28
2016-04-17T02:25:29.525Z,15.21
2016-04-17T02:26:29.527Z,15.22
2016-04-17T02:27:29.499Z,15.29
2016-04-17T02:28:29.471Z,15.37
2016-04-17T02:29:29.488Z,15.36
2016-04-17T02:30:29.444Z,15.39
2016-04-17T02:31:29.432Z,15.42
2016-04-17T02:32:29.419Z,15.24
2016-04-17T02:33:29.406Z,15.36
2016-04-17T02:34:29.393Z,15.37
2016-04-17T02:35:29.365Z,15.29
2016-04-17T02:36:29.351Z,15.33
2016-04-17T02:37:29.354Z,15.14
2016-04-17T02:38:29.326Z,15
2016-04-17T02:39:29.313Z,14.88
2016-04-17T02:40:29.299Z,14.78
2016-04-17T02:41:29.287Z,14.81
2016-04-17T02:42:29.273Z,14.84
2016-04-17T02:43:29.261Z,14.69
2016-04-17T02:44:29.248Z,14.81
2016-04-17T02:45:29.235Z,14.82
2016-04-17T02:46:29.222Z,14.84
2016-04-17T02:47:29.193Z,14.63
2016-04-17T02:48:29.180Z,14.79
2016-04-17T02:49:29.168Z,14.63
2016-04-17T02:50:29.155Z,14.65
2016-04-17T02:51:29.158Z,14.65
2016-04-17T02:52:29.113Z,14.66
2016-04-17T02:53:29.116Z,14.6
2016-04-17T02:54:29.086Z,14.7
2016-04-17T02:55:29.075Z,14.69
2016-04-17T02:56:29.046Z,14.65
2016-04-17T02:57:29.033Z,14.65
2016-04-17T02:58:29.035Z,14.68
2016-04-17T02:59:29.022Z,14.78
2016-04-17T03:00:29.010Z,14.85
2016-04-17T03:01:28.996Z,14.79
2016-04-17T03:02:28.968Z,14.7
2016-04-17T03:03:28.955Z,14.73
2016-04-17T03:04:28.943Z,14.79
2016-04-17T03:05:28.929Z,14.84
2016-04-17T03:06:28.916Z,14.85
2016-04-17T03:07:28.888Z,14.6
2016-04-17T03:08:28.890Z,14.66
2016-04-17T03:09:28.862Z,14.72
2016-04-17T03:10:28.849Z,14.78
2016-04-17T03:11:28.851Z,14.69
2016-04-17T03:12:28.839Z,14.81
2016-04-17T03:13:28.810Z,14.88
2016-04-17T03:14:28.782Z,14.97
2016-04-17T03:15:28.768Z,14.84
2016-04-17T03:16:28.787Z,14.82
2016-04-17T03:17:28.758Z,14.66
2016-04-17T03:18:28.730Z,14.85
2016-04-17T03:19:28.717Z,14.73
2016-04-17T03:20:28.688Z,14.91
2016-04-17T03:21:28.722Z,14.88
2016-04-17T03:22:28.662Z,14.85
2016-04-17T03:23:28.650Z,14.68
2016-04-17T03:24:28.653Z,14.84
2016-04-17T03:25:28.624Z,14.88
2016-04-17T03:26:28.611Z,14.68
2016-04-17T03:27:28.597Z,14.79
2016-04-17T03:28:28.585Z,14.81
2016-04-17T03:29:28.587Z,14.85
2016-04-17T03:30:28.559Z,14.89
2016-04-17T03:31:28.546Z,14.92
2016-04-17T03:32:28.518Z,14.88
2016-04-17T03:33:28.504Z,14.84
2016-04-17T03:34:28.491Z,14.86
2016-04-17T03:35:28.478Z,14.96
2016-04-17T03:36:28.482Z,15.03
2016-04-17T03:37:28.452Z,14.88
2016-04-17T03:38:28.440Z,14.81
2016-04-17T03:39:28.426Z,14.89
2016-04-17T03:40:28.398Z,14.92
2016-04-17T03:41:28.385Z,14.92
2016-04-17T03:42:28.373Z,14.85
2016-04-17T03:43:28.359Z,14.94
2016-04-17T03:44:28.331Z,14.94
2016-04-17T03:45:28.334Z,14.91
2016-04-17T03:46:28.305Z,14.99
2016-04-17T03:47:28.276Z,14.88
2016-04-17T03:48:28.279Z,14.92
2016-04-17T03:49:28.251Z,14.91
2016-04-17T03:50:28.254Z,14.81
2016-04-17T03:51:28.240Z,14.81
2016-04-17T03:52:28.227Z,14.7
2016-04-17T03:53:28.200Z,14.81
2016-04-17T03:54:28.186Z,14.82
2016-04-17T03:55:28.173Z,14.88
2016-04-17T03:56:28.160Z,14.88
2016-04-17T03:57:28.147Z,14.85
2016-04-17T03:58:28.134Z,14.82
2016-04-17T03:59:28.105Z,14.72
2016-04-17T04:00:28.108Z,14.72
2016-04-17T04:01:28.096Z,14.72
2016-04-17T04:02:28.083Z,14.63
2016-04-17T04:03:28.054Z,14.69
2016-04-17T04:04:28.041Z,14.79
2016-04-17T04:05:28.028Z,14.85
2016-04-17T04:06:28.031Z,14.85
2016-04-17T04:07:27.987Z,14.68
2016-04-17T04:08:27.974Z,14.73
2016-04-17T04:09:27.960Z,14.63
2016-04-17T04:10:27.963Z,14.7
2016-04-17T04:11:27.934Z,14.65
2016-04-17T04:12:27.922Z,14.65
2016-04-17T04:13:27.909Z,14.84
2016-04-17T04:14:27.881Z,14.78
2016-04-17T04:15:27.883Z,14.66
2016-04-17T04:16:27.855Z,14.66
2016-04-17T04:17:27.857Z,14.62
2016-04-17T04:18:27.829Z,14.66
2016-04-17T04:19:27.831Z,14.58
2016-04-17T04:20:27.803Z,14.43
2016-04-17T04:21:27.789Z,14.53
2016-04-17T04:22:27.777Z,14.54
2016-04-17T04:23:27.748Z,14.59
2016-04-17T04:24:27.751Z,14.6
2016-04-17T04:25:27.785Z,14.45
2016-04-17T04:26:27.694Z,14.65
2016-04-17T04:27:27.696Z,14.47
2016-04-17T04:28:27.683Z,14.55
2016-04-17T04:29:27.655Z,14.66
2016-04-17T04:30:27.642Z,14.65
2016-04-17T04:31:27.645Z,14.47
2016-04-17T04:32:27.616Z,14.6
2016-04-17T04:33:27.619Z,14.6
2016-04-17T04:34:27.591Z,14.53
2016-04-17T04:35:27.578Z,14.45
2016-04-17T04:36:27.565Z,14.58
2016-04-17T04:37:27.536Z,14.53
2016-04-17T04:38:27.523Z,14.47
2016-04-17T04:39:27.510Z,14.54
2016-04-17T04:40:27.654Z,14.5
2016-04-17T04:41:27.484Z,14.48
2016-04-17T04:42:27.456Z,14.44
2016-04-17T04:43:27.459Z,14.59
2016-04-17T04:44:27.429Z,14.63
2016-04-17T04:45:27.417Z,14.55
2016-04-17T04:46:27.403Z,14.65
2016-04-17T04:47:27.391Z,14.62
2016-04-17T04:48:27.378Z,14.45
2016-04-17T04:49:27.365Z,14.59
2016-04-17T04:50:27.352Z,14.69
2016-04-17T04:51:27.339Z,14.7
2016-04-17T04:52:27.311Z,14.86
2016-04-17T04:53:27.298Z,14.84
2016-04-17T04:54:27.284Z,14.84
2016-04-17T04:55:27.397Z,14.73
2016-04-17T04:56:27.243Z,14.77
2016-04-17T04:57:27.230Z,14.7
2016-04-17T04:58:27.233Z,14.72
2016-04-17T04:59:27.204Z,14.69
2016-04-17T05:00:27.208Z,14.68
2016-04-17T05:01:27.178Z,14.59
2016-04-17T05:02:27.150Z,14.68
2016-04-17T05:03:27.152Z,14.59
2016-04-17T05:04:27.124Z,14.62
2016-04-17T05:05:27.127Z,14.59
2016-04-17T05:06:27.099Z,14.5
2016-04-17T05:07:27.085Z,14.47
2016-04-17T05:08:27.072Z,14.48
2016-04-17T05:09:27.074Z,14.4
2016-04-17T05:10:27.063Z,14.4
2016-04-17T05:11:27.018Z,14.41
2016-04-17T05:12:27.021Z,14.45
2016-04-17T05:13:27.007Z,14.47
2016-04-17T05:14:26.979Z,14.47
2016-04-17T05:15:26.981Z,14.47
2016-04-17T05:16:26.954Z,14.47
2016-04-17T05:17:26.925Z,14.44
2016-04-17T05:18:26.928Z,14.47
2016-04-17T05:19:26.898Z,14.41
2016-04-17T05:20:26.901Z,14.47
2016-04-17T05:21:26.872Z,14.36
2016-04-17T05:22:26.860Z,14.44
2016-04-17T05:23:26.847Z,14.41
2016-04-17T05:24:26.834Z,14.41
2016-04-17T05:25:26.805Z,14.54
2016-04-17T05:26:26.792Z,14.41
2016-04-17T05:27:26.780Z,14.41
2016-04-17T05:28:26.767Z,14.5
2016-04-17T05:29:26.753Z,14.45
2016-04-17T05:30:26.741Z,14.44
2016-04-17T05:31:26.713Z,14.51
2016-04-17T05:32:26.730Z,14.48
2016-04-17T05:33:26.686Z,14.69
2016-04-17T05:34:26.674Z,14.62
2016-04-17T05:35:26.661Z,14.62
2016-04-17T05:36:26.647Z,14.78
2016-04-17T05:37:26.635Z,14.7
2016-04-17T05:38:26.606Z,14.7
2016-04-17T05:39:26.593Z,14.79
2016-04-17T05:40:26.596Z,14.84
2016-04-17T05:41:26.583Z,14.88
2016-04-17T05:42:26.554Z,14.89
2016-04-17T05:43:26.526Z,14.96
2016-04-17T05:44:26.529Z,14.92
2016-04-17T05:45:26.516Z,14.91
2016-04-17T05:46:26.487Z,15.04
2016-04-17T05:47:26.490Z,14.81
2016-04-17T05:48:26.462Z,14.85
2016-04-17T05:49:26.448Z,14.91
2016-04-17T05:50:26.435Z,14.97
2016-04-17T05:51:26.423Z,14.92
2016-04-17T05:52:26.395Z,15.02
2016-04-17T05:53:26.397Z,14.92
2016-04-17T05:54:26.368Z,14.81
2016-04-17T05:55:26.370Z,14.91
2016-04-17T05:56:26.342Z,15.03
2016-04-17T05:57:26.344Z,15.02
2016-04-17T05:58:26.317Z,15.07
2016-04-17T05:59:26.288Z,15.1
2016-04-17T06:00:26.291Z,15.11
2016-04-17T06:01:26.261Z,15.11
2016-04-17T06:02:26.250Z,15.1
2016-04-17T06:03:26.289Z,14.97
2016-04-17T06:04:26.299Z,14.86
2016-04-17T06:05:26.327Z,14.92
2016-04-17T06:06:26.354Z,14.84
2016-04-17T06:07:26.365Z,14.72
2016-04-17T06:08:26.368Z,14.84
2016-04-17T06:09:26.370Z,14.7
2016-04-17T06:10:26.387Z,14.69
2016-04-17T06:11:26.372Z,14.69
2016-04-17T06:12:26.374Z,14.68
2016-04-17T06:13:26.351Z,14.72
2016-04-17T06:14:26.360Z,14.82
2016-04-17T06:15:26.352Z,14.6
2016-04-17T06:16:26.329Z,14.69
2016-04-17T06:17:26.321Z,14.7
2016-04-17T06:18:26.309Z,14.82
2016-04-17T06:19:26.283Z,14.84
2016-04-17T06:20:26.287Z,14.68
2016-04-17T06:21:26.278Z,14.63
2016-04-17T06:22:26.266Z,14.69
2016-04-17T06:23:26.238Z,14.63
2016-04-17T06:24:26.226Z,14.66
2016-04-17T06:25:26.213Z,14.68
2016-04-17T06:26:26.202Z,14.59
2016-04-17T06:27:26.175Z,14.66
2016-04-17T06:28:26.177Z,14.77
2016-04-17T06:29:26.164Z,14.7
2016-04-17T06:30:26.135Z,14.66
2016-04-17T06:31:26.122Z,14.79
2016-04-17T06:32:26.109Z,14.68
2016-04-17T06:33:26.096Z,14.82
2016-04-17T06:34:26.068Z,14.81
2016-04-17T06:35:26.071Z,14.84
2016-04-17T06:36:26.057Z,14.85
2016-04-17T06:37:26.029Z,14.73
2016-04-17T06:38:26.016Z,14.82
2016-04-17T06:39:26.018Z,14.94
2016-04-17T06:40:25.991Z,15.06
2016-04-17T06:41:25.821Z,15
2016-04-17T06:42:25.964Z,15.03
2016-04-17T06:43:25.952Z,15.06
2016-04-17T06:44:25.938Z,15.09
2016-04-17T06:45:25.910Z,15.03
2016-04-17T06:46:25.757Z,15.07
2016-04-17T06:47:25.884Z,15.06
2016-04-17T06:48:25.871Z,15.24
2016-04-17T06:49:25.859Z,15.19
2016-04-17T06:50:25.861Z,15.21
2016-04-17T06:51:25.832Z,15.43
2016-04-17T06:52:25.804Z,15.67
2016-04-17T06:53:25.806Z,15.8
2016-04-17T06:54:25.778Z,15.84
2016-04-17T06:55:25.764Z,15.98
2016-04-17T06:56:25.752Z,16
2016-04-17T06:57:25.740Z,15.98
2016-04-17T06:58:25.725Z,16.09
2016-04-17T06:59:25.698Z,16
2016-04-17T07:00:25.700Z,16.01
2016-04-17T07:01:25.672Z,15.97
2016-04-17T07:02:25.659Z,15.84
2016-04-17T07:03:25.646Z,15.73
2016-04-17T07:04:25.633Z,15.68
2016-04-17T07:05:25.636Z,15.72
2016-04-17T07:06:25.607Z,15.58
2016-04-17T07:07:25.610Z,15.64
2016-04-17T07:08:25.566Z,15.51
2016-04-17T07:09:25.552Z,15.55
2016-04-17T07:10:25.555Z,15.57
2016-04-17T07:11:25.542Z,15.58
2016-04-17T07:12:25.514Z,15.58
2016-04-17T07:13:25.501Z,15.37
2016-04-17T07:14:25.487Z,15.39
2016-04-17T07:15:25.474Z,15.54
2016-04-17T07:16:25.462Z,15.54
2016-04-17T07:17:25.448Z,15.58
2016-04-17T07:18:25.421Z,15.61
2016-04-17T07:19:25.423Z,15.59
2016-04-17T07:20:25.395Z,15.55
2016-04-17T07:21:25.381Z,15.49
2016-04-17T07:22:25.369Z,15.54
2016-04-17T07:23:25.356Z,15.43
2016-04-17T07:24:25.359Z,15.55
2016-04-17T07:25:25.314Z,15.46
2016-04-17T07:26:25.317Z,15.51
2016-04-17T07:27:25.289Z,15.61
2016-04-17T07:28:25.292Z,15.59
2016-04-17T07:29:25.294Z,15.58
2016-04-17T07:30:25.250Z,15.58
2016-04-17T07:31:25.236Z,15.57
2016-04-17T07:32:25.224Z,15.61
2016-04-17T07:33:25.211Z,15.58
2016-04-17T07:34:25.198Z,15.57
2016-04-17T07:35:25.185Z,15.52
2016-04-17T07:36:25.172Z,15.61
2016-04-17T07:37:25.159Z,15.61
2016-04-17T07:38:25.131Z,15.75
2016-04-17T07:39:25.133Z,15.67
2016-04-17T07:40:25.105Z,15.7
2016-04-17T07:41:25.091Z,15.76
2016-04-17T07:42:25.094Z,15.68
2016-04-17T07:43:25.066Z,15.68
2016-04-17T07:44:25.053Z,15.65
2016-04-17T07:45:25.040Z,15.64
2016-04-17T07:46:25.027Z,15.64
2016-04-17T07:47:25.029Z,15.54
2016-04-17T07:48:25.438Z,15.55
2016-04-17T07:49:24.973Z,15.65
2016-04-17T07:50:24.959Z,15.58
2016-04-17T07:51:24.946Z,15.61
2016-04-17T07:52:24.934Z,15.7
2016-04-17T07:53:24.937Z,15.7
2016-04-17T07:54:24.909Z,15.58
2016-04-17T07:55:24.895Z,15.68
2016-04-17T07:56:24.867Z,15.68
2016-04-17T07:57:24.853Z,15.68
2016-04-17T07:58:24.856Z,15.65
2016-04-17T07:59:24.842Z,15.72
2016-04-17T08:00:24.815Z,15.7
2016-04-17T08:01:24.786Z,15.68
2016-04-17T08:02:24.789Z,15.68
2016-04-17T08:03:24.775Z,15.72
2016-04-17T08:04:24.747Z,15.9
2016-04-17T08:05:24.750Z,15.94
2016-04-17T08:06:24.736Z,15.91
2016-04-17T08:07:24.724Z,15.91
2016-04-17T08:08:24.602Z,15.9
2016-04-17T08:09:24.683Z,15.77
2016-04-17T08:10:24.670Z,15.84
2016-04-17T08:11:24.657Z,15.79
2016-04-17T08:12:24.643Z,16.02
2016-04-17T08:13:24.615Z,15.95
2016-04-17T08:14:24.618Z,16.09
2016-04-17T08:15:24.605Z,16.05
2016-04-17T08:16:24.593Z,16.1
2016-04-17T08:17:24.563Z,16.04
2016-04-17T08:18:24.565Z,16.05
2016-04-17T08:19:24.553Z,16.02
2016-04-17T08:20:24.524Z,16.05
2016-04-17T08:21:24.511Z,16.15
2016-04-17T08:22:24.499Z,16.29
2016-04-17T08:23:24.470Z,16.43
2016-04-17T08:24:24.473Z,16.58
2016-04-17T08:25:24.459Z,16.69
2016-04-17T08:26:24.447Z,16.71
2016-04-17T08:27:24.418Z,16.66
2016-04-17T08:28:24.406Z,16.87
2016-04-17T08:29:24.409Z,16.99
2016-04-17T08:30:24.380Z,17.06
2016-04-17T08:31:24.367Z,17.05
2016-04-17T08:32:24.353Z,16.87
2016-04-17T08:33:24.341Z,16.93
2016-04-17T08:34:24.328Z,16.57
2016-04-17T08:35:24.314Z,16.56
2016-04-17T08:36:24.302Z,16.66
2016-04-17T08:37:24.274Z,16.68
2016-04-17T08:38:24.276Z,16.84
2016-04-17T08:39:24.263Z,16.86
2016-04-17T08:40:24.235Z,16.72
2016-04-17T08:41:24.238Z,16.75
2016-04-17T08:42:24.225Z,16.6
2016-04-17T08:43:24.197Z,16.56
2016-04-17T08:44:24.199Z,16.42
2016-04-17T08:45:24.170Z,16.49
2016-04-17T08:46:24.157Z,16.54
2016-04-17T08:47:24.160Z,16.57
2016-04-17T08:48:24.132Z,16.69
2016-04-17T08:49:24.118Z,16.68
2016-04-17T08:50:24.105Z,16.57
2016-04-17T08:51:23.937Z,16.54
2016-04-17T08:52:24.080Z,16.58
2016-04-17T08:53:24.067Z,16.78
2016-04-17T08:54:24.053Z,16.54
2016-04-17T08:55:24.040Z,16.6
2016-04-17T08:56:24.121Z,16.47
2016-04-17T08:57:24.015Z,16.66
2016-04-17T08:58:24.002Z,16.69
2016-04-17T08:59:23.973Z,16.91
2016-04-17T09:00:23.976Z,16.89
2016-04-17T09:01:23.948Z,16.75
2016-04-17T09:02:23.950Z,16.91
2016-04-17T09:03:23.937Z,16.81
2016-04-17T09:04:23.908Z,16.84
2016-04-17T09:05:23.911Z,16.9
2016-04-17T09:06:23.883Z,16.54
2016-04-17T09:07:23.870Z,16.54
2016-04-17T09:08:23.857Z,16.65
2016-04-17T09:09:23.844Z,16.75
2016-04-17T09:10:23.846Z,16.9
2016-04-17T09:11:23.834Z,16.94
2016-04-17T09:12:23.805Z,16.72
2016-04-17T09:13:23.792Z,16.71
2016-04-17T09:14:23.779Z,16.66
2016-04-17T09:15:23.767Z,16.74
2016-04-17T09:16:23.754Z,16.74
2016-04-17T09:17:23.725Z,16.75
2016-04-17T09:18:23.712Z,16.65
2016-04-17T09:19:23.699Z,16.72
2016-04-17T09:20:23.686Z,16.75
2016-04-17T09:21:23.688Z,16.81
2016-04-17T09:22:23.660Z,16.71
2016-04-17T09:23:23.647Z,16.75
2016-04-17T09:24:23.635Z,16.72
2016-04-17T09:25:23.621Z,16.86
2016-04-17T09:26:23.609Z,16.87
2016-04-17T09:27:23.596Z,16.97
2016-04-17T09:28:23.583Z,17.02
2016-04-17T09:29:23.570Z,17.02
2016-04-17T09:30:23.557Z,16.87
2016-04-17T09:31:23.528Z,16.91
2016-04-17T09:32:23.531Z,16.94
2016-04-17T09:33:23.503Z,17.02
2016-04-17T09:34:23.490Z,16.9
2016-04-17T09:35:23.492Z,16.89
2016-04-17T09:36:23.479Z,17.06
2016-04-17T09:37:23.467Z,16.9
2016-04-17T09:38:23.439Z,17.12
2016-04-17T09:39:23.441Z,17.06
2016-04-17T09:40:23.412Z,17.12
2016-04-17T09:41:23.431Z,16.89
2016-04-17T09:42:23.370Z,16.99
2016-04-17T09:43:23.388Z,16.96
2016-04-17T09:44:23.360Z,17.11
2016-04-17T09:45:23.347Z,17.08
2016-04-17T09:46:23.335Z,17.15
2016-04-17T09:47:23.321Z,17.15
2016-04-17T09:48:23.294Z,17.16
2016-04-17T09:49:23.280Z,17.33
2016-04-17T09:50:23.283Z,17.38
2016-04-17T09:51:23.270Z,17.31
2016-04-17T09:52:23.257Z,17.27
2016-04-17T09:53:23.244Z,17.33
2016-04-17T09:54:23.216Z,17.33
2016-04-17T09:55:23.218Z,17.08
2016-04-17T09:56:23.315Z,17.15
2016-04-17T09:57:23.161Z,17.29
2016-04-17T09:58:23.163Z,17.29
2016-04-17T09:59:23.150Z,17.33
2016-04-17T10:00:23.762Z,17.38
2016-04-17T10:01:23.125Z,17.57
2016-04-17T10:02:23.112Z,17.54
2016-04-17T10:03:23.099Z,17.49
2016-04-17T10:04:23.087Z,17.38
2016-04-17T10:05:23.073Z,17.11
2016-04-17T10:06:23.060Z,17.34
2016-04-17T10:07:23.032Z,17.51
2016-04-17T10:08:23.034Z,17.41
2016-04-17T10:09:23.021Z,17.68
2016-04-17T10:10:23.009Z,17.63
2016-04-17T10:11:22.855Z,17.85
2016-04-17T10:12:22.983Z,17.86
2016-04-17T10:13:22.969Z,18.04
2016-04-17T10:14:22.941Z,17.49
2016-04-17T10:15:22.927Z,17.63
2016-04-17T10:16:22.916Z,17.7
2016-04-17T10:17:22.918Z,17.8
2016-04-17T10:18:22.905Z,17.92
2016-04-17T10:19:22.877Z,18.05
2016-04-17T10:20:22.879Z,18.11
2016-04-17T10:21:22.866Z,18.1
2016-04-17T10:22:22.837Z,17.8
2016-04-17T10:23:22.824Z,17.9
2016-04-17T10:24:22.812Z,17.72
2016-04-17T10:25:22.798Z,17.86
2016-04-17T10:26:22.785Z,17.97
2016-04-17T10:27:22.788Z,18.15
2016-04-17T10:28:22.619Z,18.19
2016-04-17T10:29:22.763Z,17.89
2016-04-17T10:30:22.734Z,17.74
2016-04-17T10:31:22.721Z,17.87
2016-04-17T10:32:22.708Z,18.16
2016-04-17T10:33:22.711Z,18.26
2016-04-17T10:34:22.682Z,18.22
2016-04-17T10:35:22.669Z,18.23
2016-04-17T10:36:22.672Z,18.43
2016-04-17T10:37:22.659Z,18.5
2016-04-17T10:38:22.631Z,18.53
2016-04-17T10:39:22.618Z,18.65
2016-04-17T10:40:22.620Z,18.6
2016-04-17T10:41:22.639Z,18.81
2016-04-17T10:42:22.594Z,18.56
2016-04-17T10:43:22.581Z,18.66
2016-04-17T10:44:22.584Z,18.52
2016-04-17T10:45:22.555Z,18.43
2016-04-17T10:46:22.528Z,18.7
2016-04-17T10:47:22.529Z,18.96
2016-04-17T10:48:22.502Z,19.09
2016-04-17T10:49:22.505Z,19.22
2016-04-17T10:50:22.491Z,19.96
2016-04-17T10:51:22.478Z,21.15
2016-04-17T10:52:22.466Z,22.1
2016-04-17T10:53:22.436Z,22.72
2016-04-17T10:54:22.439Z,23.55
2016-04-17T10:55:22.426Z,23.81
2016-04-17T10:56:22.429Z,24.26
2016-04-17T10:57:22.415Z,25.17
2016-04-17T10:58:22.403Z,26.34
2016-04-17T10:59:22.407Z,26.16
2016-04-17T11:00:22.393Z,26.38
2016-04-17T11:01:22.365Z,25.59
2016-04-17T11:02:22.367Z,26.13
2016-04-17T11:03:22.370Z,26
2016-04-17T11:04:22.357Z,25.5
2016-04-17T11:05:22.359Z,24.93
2016-04-17T11:06:22.346Z,24.18
2016-04-17T11:07:22.348Z,24.81
2016-04-17T11:08:22.336Z,24.93
2016-04-17T11:09:22.339Z,25.43
2016-04-17T11:10:22.325Z,25.31
2016-04-17T11:11:22.328Z,24.11
2016-04-17T11:12:22.331Z,24.68
2016-04-17T11:13:22.334Z,25.43
2016-04-17T11:14:22.322Z,25.96
2016-04-17T11:15:22.324Z,25.53
2016-04-17T11:16:22.311Z,24.74
2016-04-17T11:17:22.330Z,26
2016-04-17T11:18:22.332Z,27.29
2016-04-17T11:19:22.335Z,27.73
2016-04-17T11:20:22.322Z,27.25
2016-04-17T11:21:22.325Z,27.63
2016-04-17T11:22:22.311Z,28.81
2016-04-17T11:23:22.313Z,28.41
2016-04-17T11:24:22.316Z,27.89
2016-04-17T11:25:22.319Z,26.43
2016-04-17T11:26:22.307Z,27.05
2016-04-17T11:27:22.324Z,26.65
2016-04-17T11:28:22.312Z,27.27
2016-04-17T11:29:22.315Z,27.96
2016-04-17T11:30:22.317Z,27.37
2016-04-17T11:31:22.320Z,26.47
2016-04-17T11:32:22.323Z,26.41
2016-04-17T11:33:22.325Z,27.95
2016-04-17T11:34:22.329Z,27.26
2016-04-17T11:35:22.331Z,26.44
2016-04-17T11:36:22.317Z,26.06
2016-04-17T11:37:22.320Z,27.48
2016-04-17T11:38:22.323Z,28.78
2016-04-17T11:39:22.326Z,30.19
2016-04-17T11:40:22.344Z,29.65
2016-04-17T11:41:22.347Z,30.24
2016-04-17T11:42:22.350Z,30.7
2016-04-17T11:43:22.353Z,31.22
2016-04-17T11:44:22.324Z,30.92
2016-04-17T11:45:22.358Z,29.36
2016-04-17T11:46:22.345Z,27.67
2016-04-17T11:47:22.348Z,26.09
2016-04-17T11:48:22.350Z,27.59
2016-04-17T11:49:22.353Z,26.88
2016-04-17T11:50:22.183Z,26.96
2016-04-17T11:51:22.342Z,27.92
2016-04-17T11:52:22.360Z,29.04
2016-04-17T11:53:22.379Z,29.23
2016-04-17T11:54:22.350Z,29.31
2016-04-17T11:55:22.369Z,29.04
2016-04-17T11:56:22.355Z,28.72
2016-04-17T11:57:22.358Z,27.73
2016-04-17T11:58:22.377Z,28.56
2016-04-17T11:59:22.364Z,29.31
2016-04-17T12:00:22.399Z,29.2
2016-04-17T12:01:22.369Z,28.56
2016-04-17T12:02:22.388Z,29.41
2016-04-17T12:03:22.422Z,29.5
2016-04-17T12:04:22.409Z,29.19
2016-04-17T12:05:22.412Z,29.93
2016-04-17T12:06:22.383Z,29.65
2016-04-17T12:07:22.385Z,30.32
2016-04-17T12:08:22.388Z,30.77
2016-04-17T12:09:22.390Z,29.02
2016-04-17T12:10:22.393Z,28.23
2016-04-17T12:11:22.396Z,28.72
2016-04-17T12:12:22.399Z,29.84
2016-04-17T12:13:22.401Z,30.55
2016-04-17T12:14:22.404Z,29.94
2016-04-17T12:15:22.422Z,28.74
2016-04-17T12:16:22.441Z,28.74
2016-04-17T12:17:22.412Z,29.35
2016-04-17T12:18:22.430Z,30.03
2016-04-17T12:19:22.433Z,29.38
2016-04-17T12:20:22.436Z,28.72
2016-04-17T12:21:22.455Z,27.03
2016-04-17T12:22:22.457Z,26.25
2016-04-17T12:23:22.460Z,28.88
2016-04-17T12:24:22.446Z,29.1
2016-04-17T12:25:22.466Z,27.95
2016-04-17T12:26:22.453Z,30
2016-04-17T12:27:22.471Z,31.44
2016-04-17T12:28:22.458Z,31.97
2016-04-17T12:29:22.460Z,32.48
2016-04-17T12:30:22.479Z,31
2016-04-17T12:31:22.482Z,31.97
2016-04-17T12:32:22.485Z,31.17
2016-04-17T12:33:22.471Z,29.35
2016-04-17T12:34:22.474Z,30
2016-04-17T12:35:22.477Z,29.38
2016-04-17T12:36:22.510Z,29.75
2016-04-17T12:37:22.482Z,29.72
2016-04-17T12:38:22.501Z,31
2016-04-17T12:39:22.487Z,30.96
2016-04-17T12:40:22.490Z,31.4
2016-04-17T12:41:22.509Z,31.31
2016-04-17T12:42:22.495Z,31.34
2016-04-17T12:43:22.513Z,30.65
2016-04-17T12:44:22.516Z,29.04
2016-04-17T12:45:22.503Z,31.05
2016-04-17T12:46:22.522Z,32.18
2016-04-17T12:47:22.540Z,31.22
2016-04-17T12:48:22.527Z,30.27
2016-04-17T12:49:22.530Z,30.08
2016-04-17T12:50:22.532Z,30.65
2016-04-17T12:51:22.550Z,28.26
2016-04-17T12:52:22.538Z,28.02
2016-04-17T12:53:26.102Z,28.6
2016-04-17T12:54:22.543Z,29.98
2016-04-17T12:55:22.546Z,31.69